Nis, Serbia

1:44 PM CEST on October 23, 2014 (GMT +0200)
Nis | Change Station
CLOSE
Current Station
Airport
Location: Nis,
Elevation: 663 ft
Nearby Weather Stations

Elev 663 ft 43.33 °N, 21.90 °E | Updated 14 minutes ago

Light Rain
Light Rain
37 °F
Feels Like 35 °F
N
4
Wind Variable Wind from SE

Today
High -- | Low -- °F
--% Chance of Precip.
Yesterday
High -- | Low -- °F
Precip. -- in
6:55 AM 5:37 PM
Waning Crescent, 0% visible
Pressure 29.71 in
Visibility 5.0 miles
Clouds Scattered Clouds 800 ft
Mostly Cloudy 2000 ft
Windchill 35 °F
Dew Point 36 °F
Humidity 93%
Rainfall 0.00 in
Snow Depth Not available.
UV 2 out of 12
Pollen Not available.
Air Quality Not available.
Flu Activity Not available.
METAR LYNI 231130Z 14003KT 040V190 8000 -RA SCT008 BKN020 03/02 Q1006 NOSIG

More Conditions Fewer Conditions

Pressure 29.71 in
Visibility 5.0 miles
Clouds Scattered Clouds 800 ft
Mostly Cloudy 2000 ft
Windchill 35 °F
Dew Point 36 °F
Humidity 93%
Rainfall 0.00 in
Snow Depth Not available.
UV 2 out of 12
Pollen Not available.
Air Quality Not available.
Flu Activity Not available.
METAR LYNI 231130Z 14003KT 040V190 8000 -RA SCT008 BKN020 03/02 Q1006 NOSIG

More Conditions Fewer Conditions

10-Day Weather Forecast

Almanac

Astronomy

Oct. 23, 2014 Rise Set
Actual Time 6:55 AM CEST 5:37 PM CEST
Civil Twilight 6:26 AM CEST 6:06 PM CEST
Nautical Twilight 5:53 AM CEST 6:39 PM CEST
Astronomical Twilight 5:20 AM CEST 7:12 PM CEST
Moon 6:16 AM CEST 5:27 PM CEST
Length of Visible Light 11h 39m
Length of Day
10h 41m
Tomorrow will be 2m 46s shorter.
Waning Crescent, 0% of the Moon is Illuminated
Today
Waning Crescent
Oct 23
New
Oct 30
First Quarter
Nov 6
Full
Nov 14
Last Quarter

Community

WunderPhotos

Upload Photos

1,764,209 photos uploaded!

Nearby

Snow Depth

Not available.

Earthquake Activity

City Distance Mag. Time & Date
No recent earthquake activity has been reported nearby.
Minimum magnitude displayed is 2.5.

Coastal Water Temperatures

Place Temperature
No Stations Reporting

Nearby Weather Stations